sensor_id;sensor_type;location;lat;lon;timestamp;temperature;humidity
2721;DHT22;1368;49.484;11.112;2023-05-07T00:01:43;13.70;99.90
2721;DHT22;1368;49.484;11.112;2023-05-07T00:04:09;13.70;99.90
2721;DHT22;1368;49.484;11.112;2023-05-07T00:06:34;13.70;99.90
2721;DHT22;1368;49.484;11.112;2023-05-07T00:09:00;13.70;99.90
2721;DHT22;1368;49.484;11.112;2023-05-07T00:11:26;13.80;99.90
2721;DHT22;1368;49.484;11.112;2023-05-07T00:13:52;13.90;99.90
2721;DHT22;1368;49.484;11.112;2023-05-07T00:16:18;13.90;99.90
2721;DHT22;1368;49.484;11.112;2023-05-07T00:18:43;14.00;99.90
2721;DHT22;1368;49.484;11.112;2023-05-07T00:21:09;14.40;99.90
2721;DHT22;1368;49.484;11.112;2023-05-07T00:23:35;14.10;99.90
2721;DHT22;1368;49.484;11.112;2023-05-07T00:26:00;14.10;99.90
2721;DHT22;1368;49.484;11.112;2023-05-07T00:28:26;14.70;99.90
2721;DHT22;1368;49.484;11.112;2023-05-07T00:30:52;14.10;99.90
2721;DHT22;1368;49.484;11.112;2023-05-07T00:33:17;14.10;99.90
2721;DHT22;1368;49.484;11.112;2023-05-07T00:35:43;14.50;99.90
2721;DHT22;1368;49.484;11.112;2023-05-07T00:38:08;14.40;99.90
2721;DHT22;1368;49.484;11.112;2023-05-07T00:40:34;14.50;99.90
2721;DHT22;1368;49.484;11.112;2023-05-07T00:43:00;14.40;99.90
2721;DHT22;1368;49.484;11.112;2023-05-07T00:45:26;14.30;99.90
2721;DHT22;1368;49.484;11.112;2023-05-07T00:47:58;14.40;99.90
2721;DHT22;1368;49.484;11.112;2023-05-07T00:50:24;14.40;99.90
2721;DHT22;1368;49.484;11.112;2023-05-07T00:52:50;14.20;99.90
2721;DHT22;1368;49.484;11.112;2023-05-07T00:55:16;14.20;99.90
2721;DHT22;1368;49.484;11.112;2023-05-07T00:57:42;14.40;99.90
2721;DHT22;1368;49.484;11.112;2023-05-07T01:00:09;14.20;99.90
2721;DHT22;1368;49.484;11.112;2023-05-07T01:02:35;14.30;99.90
2721;DHT22;1368;49.484;11.112;2023-05-07T01:05:02;14.70;99.90
2721;DHT22;1368;49.484;11.112;2023-05-07T01:07:30;14.30;99.90
2721;DHT22;1368;49.484;11.112;2023-05-07T01:09:56;14.20;99.90
2721;DHT22;1368;49.484;11.112;2023-05-07T01:12:22;14.20;99.90
2721;DHT22;1368;49.484;11.112;2023-05-07T01:14:48;14.20;99.90
2721;DHT22;1368;49.484;11.112;2023-05-07T01:17:15;14.20;99.90
2721;DHT22;1368;49.484;11.112;2023-05-07T01:19:41;14.20;99.90
2721;DHT22;1368;49.484;11.112;2023-05-07T01:22:09;14.10;99.90
2721;DHT22;1368;49.484;11.112;2023-05-07T01:24:36;14.20;99.90
2721;DHT22;1368;49.484;11.112;2023-05-07T01:27:02;14.60;99.90
2721;DHT22;1368;49.484;11.112;2023-05-07T01:29:28;14.30;99.90
2721;DHT22;1368;49.484;11.112;2023-05-07T01:31:55;14.30;99.90
2721;DHT22;1368;49.484;11.112;2023-05-07T01:34:22;14.00;99.90
2721;DHT22;1368;49.484;11.112;2023-05-07T01:36:48;14.00;99.90
2721;DHT22;1368;49.484;11.112;2023-05-07T01:39:15;14.00;99.90
2721;DHT22;1368;49.484;11.112;2023-05-07T01:41:41;14.00;99.90
2721;DHT22;1368;49.484;11.112;2023-05-07T01:44:08;13.90;99.90
2721;DHT22;1368;49.484;11.112;2023-05-07T01:46:35;13.90;99.90
2721;DHT22;1368;49.484;11.112;2023-05-07T01:49:01;14.00;99.90
2721;DHT22;1368;49.484;11.112;2023-05-07T01:51:26;13.90;99.90
2721;DHT22;1368;49.484;11.112;2023-05-07T01:53:52;13.90;99.90
2721;DHT22;1368;49.484;11.112;2023-05-07T01:56:18;13.80;99.90
2721;DHT22;1368;49.484;11.112;2023-05-07T01:58:45;13.90;99.90
2721;DHT22;1368;49.484;11.112;2023-05-07T02:01:12;14.00;99.90
2721;DHT22;1368;49.484;11.112;2023-05-07T02:03:38;14.00;99.90
2721;DHT22;1368;49.484;11.112;2023-05-07T02:06:03;13.90;99.90
2721;DHT22;1368;49.484;11.112;2023-05-07T02:08:29;13.80;99.90
2721;DHT22;1368;49.484;11.112;2023-05-07T02:10:55;13.90;99.90
2721;DHT22;1368;49.484;11.112;2023-05-07T02:13:21;13.80;99.90
2721;DHT22;1368;49.484;11.112;2023-05-07T02:15:47;13.90;99.90
2721;DHT22;1368;49.484;11.112;2023-05-07T02:18:16;13.90;99.90
2721;DHT22;1368;49.484;11.112;2023-05-07T02:20:42;13.80;99.90
2721;DHT22;1368;49.484;11.112;2023-05-07T02:23:08;13.70;99.90
2721;DHT22;1368;49.484;11.112;2023-05-07T02:25:33;13.70;99.90
2721;DHT22;1368;49.484;11.112;2023-05-07T02:27:59;13.70;99.90
2721;DHT22;1368;49.484;11.112;2023-05-07T02:30:24;14.20;99.90
2721;DHT22;1368;49.484;11.112;2023-05-07T02:32:50;13.70;99.90
2721;DHT22;1368;49.484;11.112;2023-05-07T02:35:16;13.60;99.90
2721;DHT22;1368;49.484;11.112;2023-05-07T02:37:42;13.60;99.90
2721;DHT22;1368;49.484;11.112;2023-05-07T02:40:08;13.60;99.90
2721;DHT22;1368;49.484;11.112;2023-05-07T02:42:33;13.60;99.90
2721;DHT22;1368;49.484;11.112;2023-05-07T02:44:59;13.50;99.90
2721;DHT22;1368;49.484;11.112;2023-05-07T02:47:25;13.40;99.90
2721;DHT22;1368;49.484;11.112;2023-05-07T02:49:54;13.40;99.90
2721;DHT22;1368;49.484;11.112;2023-05-07T02:52:20;13.50;99.90
2721;DHT22;1368;49.484;11.112;2023-05-07T02:54:46;13.40;99.90
2721;DHT22;1368;49.484;11.112;2023-05-07T02:57:11;13.30;99.90
2721;DHT22;1368;49.484;11.112;2023-05-07T02:59:37;13.30;99.90
2721;DHT22;1368;49.484;11.112;2023-05-07T03:02:02;13.20;99.90
2721;DHT22;1368;49.484;11.112;2023-05-07T03:04:28;13.20;99.90
2721;DHT22;1368;49.484;11.112;2023-05-07T03:06:53;13.20;99.90
2721;DHT22;1368;49.484;11.112;2023-05-07T03:09:19;13.10;99.90
2721;DHT22;1368;49.484;11.112;2023-05-07T03:11:44;13.10;99.90
2721;DHT22;1368;49.484;11.112;2023-05-07T03:14:10;13.10;99.90
2721;DHT22;1368;49.484;11.112;2023-05-07T03:16:35;13.00;99.90
2721;DHT22;1368;49.484;11.112;2023-05-07T03:19:01;13.40;99.90
2721;DHT22;1368;49.484;11.112;2023-05-07T03:21:27;12.90;99.90
2721;DHT22;1368;49.484;11.112;2023-05-07T03:23:52;12.90;99.90
2721;DHT22;1368;49.484;11.112;2023-05-07T03:26:18;12.90;99.90
2721;DHT22;1368;49.484;11.112;2023-05-07T03:28:44;12.90;99.90
2721;DHT22;1368;49.484;11.112;2023-05-07T03:31:09;12.90;99.90
2721;DHT22;1368;49.484;11.112;2023-05-07T03:33:35;12.90;99.90
2721;DHT22;1368;49.484;11.112;2023-05-07T03:36:01;13.00;99.90
2721;DHT22;1368;49.484;11.112;2023-05-07T03:38:26;12.80;99.90
2721;DHT22;1368;49.484;11.112;2023-05-07T03:40:52;12.80;99.90
2721;DHT22;1368;49.484;11.112;2023-05-07T03:43:17;12.70;99.90
2721;DHT22;1368;49.484;11.112;2023-05-07T03:45:43;12.70;99.90
2721;DHT22;1368;49.484;11.112;2023-05-07T03:48:08;12.70;99.90
2721;DHT22;1368;49.484;11.112;2023-05-07T03:50:34;12.70;99.90
2721;DHT22;1368;49.484;11.112;2023-05-07T03:52:59;12.70;99.90
2721;DHT22;1368;49.484;11.112;2023-05-07T03:55:25;12.70;99.90
2721;DHT22;1368;49.484;11.112;2023-05-07T03:57:51;12.70;99.90
2721;DHT22;1368;49.484;11.112;2023-05-07T04:00:16;12.70;99.90
2721;DHT22;1368;49.484;11.112;2023-05-07T04:02:42;12.70;99.90
2721;DHT22;1368;49.484;11.112;2023-05-07T04:05:08;12.90;99.90
2721;DHT22;1368;49.484;11.112;2023-05-07T04:07:33;12.90;99.90
2721;DHT22;1368;49.484;11.112;2023-05-07T04:09:59;13.00;99.90
2721;DHT22;1368;49.484;11.112;2023-05-07T04:12:24;13.00;99.90
2721;DHT22;1368;49.484;11.112;2023-05-07T04:14:50;13.10;99.90
2721;DHT22;1368;49.484;11.112;2023-05-07T04:17:15;13.10;99.90
2721;DHT22;1368;49.484;11.112;2023-05-07T04:19:41;13.00;99.90
2721;DHT22;1368;49.484;11.112;2023-05-07T04:22:10;13.20;99.90
2721;DHT22;1368;49.484;11.112;2023-05-07T04:24:36;13.30;99.90
2721;DHT22;1368;49.484;11.112;2023-05-07T04:27:02;13.50;99.90
2721;DHT22;1368;49.484;11.112;2023-05-07T04:29:27;13.90;99.90
2721;DHT22;1368;49.484;11.112;2023-05-07T04:31:53;14.20;99.90
2721;DHT22;1368;49.484;11.112;2023-05-07T04:34:21;14.60;99.90
2721;DHT22;1368;49.484;11.112;2023-05-07T04:36:46;15.00;99.90
2721;DHT22;1368;49.484;11.112;2023-05-07T04:39:13;14.90;99.90
2721;DHT22;1368;49.484;11.112;2023-05-07T04:41:38;14.40;99.90
2721;DHT22;1368;49.484;11.112;2023-05-07T04:44:04;14.60;99.90
2721;DHT22;1368;49.484;11.112;2023-05-07T04:46:31;14.40;99.90
2721;DHT22;1368;49.484;11.112;2023-05-07T04:48:56;14.40;99.90
2721;DHT22;1368;49.484;11.112;2023-05-07T04:51:22;14.40;99.90
2721;DHT22;1368;49.484;11.112;2023-05-07T04:53:48;15.00;99.90
2721;DHT22;1368;49.484;11.112;2023-05-07T04:56:14;15.10;99.90
2721;DHT22;1368;49.484;11.112;2023-05-07T04:58:39;15.40;99.90
2721;DHT22;1368;49.484;11.112;2023-05-07T05:01:05;15.60;99.90
2721;DHT22;1368;49.484;11.112;2023-05-07T05:03:31;16.20;99.90
2721;DHT22;1368;49.484;11.112;2023-05-07T05:05:56;15.60;99.90
2721;DHT22;1368;49.484;11.112;2023-05-07T05:08:24;15.40;99.90
2721;DHT22;1368;49.484;11.112;2023-05-07T05:10:50;15.00;99.90
2721;DHT22;1368;49.484;11.112;2023-05-07T05:13:16;15.00;99.90
2721;DHT22;1368;49.484;11.112;2023-05-07T05:15:41;15.40;99.90
2721;DHT22;1368;49.484;11.112;2023-05-07T05:18:07;15.40;99.90
2721;DHT22;1368;49.484;11.112;2023-05-07T05:20:32;15.50;99.90
2721;DHT22;1368;49.484;11.112;2023-05-07T05:22:58;15.80;99.90
2721;DHT22;1368;49.484;11.112;2023-05-07T05:25:24;16.50;99.90
2721;DHT22;1368;49.484;11.112;2023-05-07T05:27:49;16.70;99.90
2721;DHT22;1368;49.484;11.112;2023-05-07T05:30:24;17.60;99.90
2721;DHT22;1368;49.484;11.112;2023-05-07T05:32:49;18.50;99.90
2721;DHT22;1368;49.484;11.112;2023-05-07T05:35:15;18.60;99.90
2721;DHT22;1368;49.484;11.112;2023-05-07T05:37:40;17.70;99.90
2721;DHT22;1368;49.484;11.112;2023-05-07T05:40:06;17.80;99.90
2721;DHT22;1368;49.484;11.112;2023-05-07T05:42:32;18.40;99.90
2721;DHT22;1368;49.484;11.112;2023-05-07T05:44:57;18.30;99.90
2721;DHT22;1368;49.484;11.112;2023-05-07T05:47:23;17.60;99.90
2721;DHT22;1368;49.484;11.112;2023-05-07T05:49:49;17.30;99.90
2721;DHT22;1368;49.484;11.112;2023-05-07T05:52:14;16.90;99.90
2721;DHT22;1368;49.484;11.112;2023-05-07T05:54:40;16.10;99.90
2721;DHT22;1368;49.484;11.112;2023-05-07T05:57:05;15.80;99.90
2721;DHT22;1368;49.484;11.112;2023-05-07T05:59:31;16.20;99.90
2721;DHT22;1368;49.484;11.112;2023-05-07T06:01:57;16.60;99.90
2721;DHT22;1368;49.484;11.112;2023-05-07T06:04:22;16.30;99.90
2721;DHT22;1368;49.484;11.112;2023-05-07T06:06:48;16.40;99.90
2721;DHT22;1368;49.484;11.112;2023-05-07T06:09:13;16.00;99.90
2721;DHT22;1368;49.484;11.112;2023-05-07T06:11:39;15.70;99.90
2721;DHT22;1368;49.484;11.112;2023-05-07T06:14:06;15.60;99.90
2721;DHT22;1368;49.484;11.112;2023-05-07T06:16:31;15.70;99.90
2721;DHT22;1368;49.484;11.112;2023-05-07T06:18:57;15.60;99.90
2721;DHT22;1368;49.484;11.112;2023-05-07T06:21:22;16.20;99.90
2721;DHT22;1368;49.484;11.112;2023-05-07T06:23:48;16.10;99.90
2721;DHT22;1368;49.484;11.112;2023-05-07T06:26:13;16.80;99.90
2721;DHT22;1368;49.484;11.112;2023-05-07T06:28:39;16.80;99.90
2721;DHT22;1368;49.484;11.112;2023-05-07T06:31:15;16.80;99.90
2721;DHT22;1368;49.484;11.112;2023-05-07T06:33:41;16.80;99.90
2721;DHT22;1368;49.484;11.112;2023-05-07T06:36:07;17.30;99.90
2721;DHT22;1368;49.484;11.112;2023-05-07T06:38:33;16.70;99.90
2721;DHT22;1368;49.484;11.112;2023-05-07T06:40:58;16.70;99.90
2721;DHT22;1368;49.484;11.112;2023-05-07T06:43:24;16.80;99.90
2721;DHT22;1368;49.484;11.112;2023-05-07T06:45:49;17.40;99.90
2721;DHT22;1368;49.484;11.112;2023-05-07T06:48:15;17.10;99.90
2721;DHT22;1368;49.484;11.112;2023-05-07T06:50:41;17.30;99.90
2721;DHT22;1368;49.484;11.112;2023-05-07T06:53:07;17.80;99.90
2721;DHT22;1368;49.484;11.112;2023-05-07T06:55:32;17.50;99.90
2721;DHT22;1368;49.484;11.112;2023-05-07T06:57:58;17.80;99.90
2721;DHT22;1368;49.484;11.112;2023-05-07T07:00:27;17.70;99.90
2721;DHT22;1368;49.484;11.112;2023-05-07T07:02:53;18.00;99.90
2721;DHT22;1368;49.484;11.112;2023-05-07T07:05:19;18.50;99.90
2721;DHT22;1368;49.484;11.112;2023-05-07T07:07:44;18.20;99.90
2721;DHT22;1368;49.484;11.112;2023-05-07T07:10:21;19.20;99.90
2721;DHT22;1368;49.484;11.112;2023-05-07T07:12:47;19.60;99.90
2721;DHT22;1368;49.484;11.112;2023-05-07T07:15:13;20.20;99.90
2721;DHT22;1368;49.484;11.112;2023-05-07T07:17:39;21.40;99.90
2721;DHT22;1368;49.484;11.112;2023-05-07T07:20:05;21.70;99.90
2721;DHT22;1368;49.484;11.112;2023-05-07T07:22:31;22.00;99.90
2721;DHT22;1368;49.484;11.112;2023-05-07T07:24:56;21.80;99.90
2721;DHT22;1368;49.484;11.112;2023-05-07T07:27:22;22.10;99.90
2721;DHT22;1368;49.484;11.112;2023-05-07T07:29:47;22.60;99.90
2721;DHT22;1368;49.484;11.112;2023-05-07T07:32:13;23.00;99.90
2721;DHT22;1368;49.484;11.112;2023-05-07T07:34:39;23.50;99.90
2721;DHT22;1368;49.484;11.112;2023-05-07T07:37:04;23.70;99.60
2721;DHT22;1368;49.484;11.112;2023-05-07T07:39:34;24.40;99.90
2721;DHT22;1368;49.484;11.112;2023-05-07T07:42:00;23.80;99.30
2721;DHT22;1368;49.484;11.112;2023-05-07T07:44:27;23.90;99.30
2721;DHT22;1368;49.484;11.112;2023-05-07T07:46:52;24.00;98.90
2721;DHT22;1368;49.484;11.112;2023-05-07T07:49:18;23.20;99.10
2721;DHT22;1368;49.484;11.112;2023-05-07T07:51:43;23.20;99.90
2721;DHT22;1368;49.484;11.112;2023-05-07T07:54:09;22.20;99.90
2721;DHT22;1368;49.484;11.112;2023-05-07T07:56:34;21.80;99.90
2721;DHT22;1368;49.484;11.112;2023-05-07T07:59:00;21.70;99.90
2721;DHT22;1368;49.484;11.112;2023-05-07T08:01:26;21.40;99.90
2721;DHT22;1368;49.484;11.112;2023-05-07T08:03:52;20.80;99.90
2721;DHT22;1368;49.484;11.112;2023-05-07T08:06:18;20.60;99.90
2721;DHT22;1368;49.484;11.112;2023-05-07T08:08:44;20.40;99.90
2721;DHT22;1368;49.484;11.112;2023-05-07T08:11:09;20.50;99.90
2721;DHT22;1368;49.484;11.112;2023-05-07T08:13:36;21.20;99.90
2721;DHT22;1368;49.484;11.112;2023-05-07T08:16:02;21.50;99.90
2721;DHT22;1368;49.484;11.112;2023-05-07T08:18:27;21.40;99.90
2721;DHT22;1368;49.484;11.112;2023-05-07T08:20:54;21.30;99.90
2721;DHT22;1368;49.484;11.112;2023-05-07T08:23:20;21.30;99.90
2721;DHT22;1368;49.484;11.112;2023-05-07T08:25:46;21.50;99.90
2721;DHT22;1368;49.484;11.112;2023-05-07T08:28:11;22.00;99.90
2721;DHT22;1368;49.484;11.112;2023-05-07T08:30:37;21.80;99.90
2721;DHT22;1368;49.484;11.112;2023-05-07T08:33:03;21.90;99.90
2721;DHT22;1368;49.484;11.112;2023-05-07T08:35:28;22.30;99.90
2721;DHT22;1368;49.484;11.112;2023-05-07T08:37:54;22.80;99.90
2721;DHT22;1368;49.484;11.112;2023-05-07T08:40:22;23.50;99.90
2721;DHT22;1368;49.484;11.112;2023-05-07T08:42:54;24.30;99.90
2721;DHT22;1368;49.484;11.112;2023-05-07T08:45:21;24.50;98.90
2721;DHT22;1368;49.484;11.112;2023-05-07T08:47:52;24.30;98.80
2721;DHT22;1368;49.484;11.112;2023-05-07T08:50:20;24.30;99.10
2721;DHT22;1368;49.484;11.112;2023-05-07T08:52:47;24.30;99.00
2721;DHT22;1368;49.484;11.112;2023-05-07T08:55:12;25.10;98.10
2721;DHT22;1368;49.484;11.112;2023-05-07T08:57:38;24.40;97.60
2721;DHT22;1368;49.484;11.112;2023-05-07T09:00:04;24.90;97.60
2721;DHT22;1368;49.484;11.112;2023-05-07T09:02:33;25.20;97.40
2721;DHT22;1368;49.484;11.112;2023-05-07T09:04:58;25.30;97.00
2721;DHT22;1368;49.484;11.112;2023-05-07T09:07:24;25.70;96.30
2721;DHT22;1368;49.484;11.112;2023-05-07T09:09:50;25.10;96.80
2721;DHT22;1368;49.484;11.112;2023-05-07T09:12:17;25.40;97.60
2721;DHT22;1368;49.484;11.112;2023-05-07T09:14:44;24.60;97.40
2721;DHT22;1368;49.484;11.112;2023-05-07T09:17:09;24.90;97.00
2721;DHT22;1368;49.484;11.112;2023-05-07T09:19:35;25.00;96.70
2721;DHT22;1368;49.484;11.112;2023-05-07T09:22:04;25.70;97.30
2721;DHT22;1368;49.484;11.112;2023-05-07T09:24:30;26.60;95.20
2721;DHT22;1368;49.484;11.112;2023-05-07T09:27:01;27.10;94.50
2721;DHT22;1368;49.484;11.112;2023-05-07T09:29:27;27.10;94.60
2721;DHT22;1368;49.484;11.112;2023-05-07T09:32:01;26.50;94.40
2721;DHT22;1368;49.484;11.112;2023-05-07T09:34:29;26.20;94.70
2721;DHT22;1368;49.484;11.112;2023-05-07T09:36:55;26.00;95.00
2721;DHT22;1368;49.484;11.112;2023-05-07T09:39:22;26.90;94.90
2721;DHT22;1368;49.484;11.112;2023-05-07T09:41:49;26.90;93.20
2721;DHT22;1368;49.484;11.112;2023-05-07T09:44:16;26.00;94.20
2721;DHT22;1368;49.484;11.112;2023-05-07T09:46:46;26.00;94.60
2721;DHT22;1368;49.484;11.112;2023-05-07T09:49:16;26.90;94.30
2721;DHT22;1368;49.484;11.112;2023-05-07T09:51:48;27.80;93.20
2721;DHT22;1368;49.484;11.112;2023-05-07T09:54:15;27.10;92.80
2721;DHT22;1368;49.484;11.112;2023-05-07T09:56:43;26.30;93.60
2721;DHT22;1368;49.484;11.112;2023-05-07T09:59:12;26.40;93.30
2721;DHT22;1368;49.484;11.112;2023-05-07T10:01:38;26.60;93.60
2721;DHT22;1368;49.484;11.112;2023-05-07T10:04:05;26.80;93.90
2721;DHT22;1368;49.484;11.112;2023-05-07T10:06:34;26.60;93.40
2721;DHT22;1368;49.484;11.112;2023-05-07T10:09:00;27.00;92.60
2721;DHT22;1368;49.484;11.112;2023-05-07T10:11:26;27.10;92.10
2721;DHT22;1368;49.484;11.112;2023-05-07T10:13:52;27.00;91.90
2721;DHT22;1368;49.484;11.112;2023-05-07T10:16:18;27.30;92.00
2721;DHT22;1368;49.484;11.112;2023-05-07T10:18:44;27.20;91.60
2721;DHT22;1368;49.484;11.112;2023-05-07T10:21:18;26.90;91.60
2721;DHT22;1368;49.484;11.112;2023-05-07T10:23:54;27.00;92.00
2721;DHT22;1368;49.484;11.112;2023-05-07T10:26:23;27.20;91.70
2721;DHT22;1368;49.484;11.112;2023-05-07T10:28:54;27.30;90.90
2721;DHT22;1368;49.484;11.112;2023-05-07T10:34:13;27.70;90.50
2721;DHT22;1368;49.484;11.112;2023-05-07T10:36:41;26.70;90.90
2721;DHT22;1368;49.484;11.112;2023-05-07T10:39:07;25.90;92.70
2721;DHT22;1368;49.484;11.112;2023-05-07T10:41:33;26.10;92.40
2721;DHT22;1368;49.484;11.112;2023-05-07T10:43:59;26.00;92.10
2721;DHT22;1368;49.484;11.112;2023-05-07T10:46:27;25.50;92.20
2721;DHT22;1368;49.484;11.112;2023-05-07T10:51:34;25.20;94.00
2721;DHT22;1368;49.484;11.112;2023-05-07T10:56:35;24.40;94.00
2721;DHT22;1368;49.484;11.112;2023-05-07T11:02:03;25.00;93.00
2721;DHT22;1368;49.484;11.112;2023-05-07T11:04:29;25.40;92.60
2721;DHT22;1368;49.484;11.112;2023-05-07T11:17:35;25.10;92.80
2721;DHT22;1368;49.484;11.112;2023-05-07T11:20:17;25.30;93.00
2721;DHT22;1368;49.484;11.112;2023-05-07T11:22:42;25.80;93.60
2721;DHT22;1368;49.484;11.112;2023-05-07T11:25:08;26.20;92.60
2721;DHT22;1368;49.484;11.112;2023-05-07T11:27:33;25.90;91.80
2721;DHT22;1368;49.484;11.112;2023-05-07T11:29:59;25.70;91.90
2721;DHT22;1368;49.484;11.112;2023-05-07T11:32:30;25.80;92.00
2721;DHT22;1368;49.484;11.112;2023-05-07T11:34:58;25.70;94.00
2721;DHT22;1368;49.484;11.112;2023-05-07T11:37:26;25.70;92.20
2721;DHT22;1368;49.484;11.112;2023-05-07T11:40:05;26.30;92.20
2721;DHT22;1368;49.484;11.112;2023-05-07T11:42:33;25.80;91.70
2721;DHT22;1368;49.484;11.112;2023-05-07T11:44:59;25.50;92.00
2721;DHT22;1368;49.484;11.112;2023-05-07T11:47:25;24.90;92.30
2721;DHT22;1368;49.484;11.112;2023-05-07T11:49:52;24.90;93.10
2721;DHT22;1368;49.484;11.112;2023-05-07T11:52:19;24.70;93.50
2721;DHT22;1368;49.484;11.112;2023-05-07T11:54:53;24.20;93.40
2721;DHT22;1368;49.484;11.112;2023-05-07T11:57:20;24.00;94.10
2721;DHT22;1368;49.484;11.112;2023-05-07T11:59:46;24.80;93.90
2721;DHT22;1368;49.484;11.112;2023-05-07T12:02:15;24.60;92.60
2721;DHT22;1368;49.484;11.112;2023-05-07T12:04:41;25.10;92.20
2721;DHT22;1368;49.484;11.112;2023-05-07T12:07:16;25.00;92.50
2721;DHT22;1368;49.484;11.112;2023-05-07T12:09:42;24.70;93.00
2721;DHT22;1368;49.484;11.112;2023-05-07T12:12:08;24.30;93.60
2721;DHT22;1368;49.484;11.112;2023-05-07T12:14:41;23.80;93.70
2721;DHT22;1368;49.484;11.112;2023-05-07T12:17:08;24.00;93.90
2721;DHT22;1368;49.484;11.112;2023-05-07T12:19:35;24.10;93.80
2721;DHT22;1368;49.484;11.112;2023-05-07T12:22:02;23.90;94.10
2721;DHT22;1368;49.484;11.112;2023-05-07T12:24:28;23.80;94.20
2721;DHT22;1368;49.484;11.112;2023-05-07T12:26:54;23.60;94.50
2721;DHT22;1368;49.484;11.112;2023-05-07T12:29:23;23.30;94.60
2721;DHT22;1368;49.484;11.112;2023-05-07T12:31:50;23.60;95.20
2721;DHT22;1368;49.484;11.112;2023-05-07T12:34:15;23.00;95.00
2721;DHT22;1368;49.484;11.112;2023-05-07T12:36:41;23.00;94.90
2721;DHT22;1368;49.484;11.112;2023-05-07T12:39:08;23.40;94.70
2721;DHT22;1368;49.484;11.112;2023-05-07T12:41:55;23.50;94.80
2721;DHT22;1368;49.484;11.112;2023-05-07T12:44:25;23.50;94.00
2721;DHT22;1368;49.484;11.112;2023-05-07T12:46:51;23.60;94.70
2721;DHT22;1368;49.484;11.112;2023-05-07T12:49:17;23.60;93.60
2721;DHT22;1368;49.484;11.112;2023-05-07T12:51:47;23.30;94.00
2721;DHT22;1368;49.484;11.112;2023-05-07T12:54:13;23.30;93.60
2721;DHT22;1368;49.484;11.112;2023-05-07T12:56:39;23.30;93.60
2721;DHT22;1368;49.484;11.112;2023-05-07T12:59:05;24.20;94.00
2721;DHT22;1368;49.484;11.112;2023-05-07T13:01:31;23.90;93.20
2721;DHT22;1368;49.484;11.112;2023-05-07T13:04:03;23.70;93.80
2721;DHT22;1368;49.484;11.112;2023-05-07T13:06:30;23.80;93.30
2721;DHT22;1368;49.484;11.112;2023-05-07T13:08:56;24.00;93.60
2721;DHT22;1368;49.484;11.112;2023-05-07T13:11:22;24.10;93.30
2721;DHT22;1368;49.484;11.112;2023-05-07T13:13:48;23.50;93.40
2721;DHT22;1368;49.484;11.112;2023-05-07T13:16:13;23.50;92.90
2721;DHT22;1368;49.484;11.112;2023-05-07T13:18:40;23.90;93.50
2721;DHT22;1368;49.484;11.112;2023-05-07T13:21:06;23.30;93.00
2721;DHT22;1368;49.484;11.112;2023-05-07T13:23:31;24.10;93.70
2721;DHT22;1368;49.484;11.112;2023-05-07T13:25:57;24.20;93.60
2721;DHT22;1368;49.484;11.112;2023-05-07T13:28:23;23.80;93.30
2721;DHT22;1368;49.484;11.112;2023-05-07T13:30:49;24.40;92.80
2721;DHT22;1368;49.484;11.112;2023-05-07T13:33:17;24.50;92.60
2721;DHT22;1368;49.484;11.112;2023-05-07T13:35:43;24.70;92.40
2721;DHT22;1368;49.484;11.112;2023-05-07T13:38:08;24.70;92.90
2721;DHT22;1368;49.484;11.112;2023-05-07T13:40:34;24.80;92.70
2721;DHT22;1368;49.484;11.112;2023-05-07T13:43:00;24.70;92.50
2721;DHT22;1368;49.484;11.112;2023-05-07T13:45:28;24.30;91.90
2721;DHT22;1368;49.484;11.112;2023-05-07T13:47:55;24.00;92.00
2721;DHT22;1368;49.484;11.112;2023-05-07T13:50:21;24.00;92.80
2721;DHT22;1368;49.484;11.112;2023-05-07T13:52:46;23.60;92.90
2721;DHT22;1368;49.484;11.112;2023-05-07T13:55:19;23.80;93.10
2721;DHT22;1368;49.484;11.112;2023-05-07T13:57:45;23.70;93.00
2721;DHT22;1368;49.484;11.112;2023-05-07T14:00:11;24.30;93.50
2721;DHT22;1368;49.484;11.112;2023-05-07T14:02:37;24.30;92.80
2721;DHT22;1368;49.484;11.112;2023-05-07T14:05:03;24.40;92.10
2721;DHT22;1368;49.484;11.112;2023-05-07T14:07:29;24.60;91.70
2721;DHT22;1368;49.484;11.112;2023-05-07T14:09:55;24.70;91.20
2721;DHT22;1368;49.484;11.112;2023-05-07T14:12:21;24.60;91.60
2721;DHT22;1368;49.484;11.112;2023-05-07T14:14:46;24.20;92.20
2721;DHT22;1368;49.484;11.112;2023-05-07T14:17:12;24.20;92.60
2721;DHT22;1368;49.484;11.112;2023-05-07T14:19:38;24.50;92.70
2721;DHT22;1368;49.484;11.112;2023-05-07T14:22:03;24.60;91.80
2721;DHT22;1368;49.484;11.112;2023-05-07T14:24:29;24.80;92.20
2721;DHT22;1368;49.484;11.112;2023-05-07T14:26:54;24.00;92.10
2721;DHT22;1368;49.484;11.112;2023-05-07T14:29:20;23.60;92.40
2721;DHT22;1368;49.484;11.112;2023-05-07T14:31:45;23.40;92.50
2721;DHT22;1368;49.484;11.112;2023-05-07T14:34:11;23.20;93.20
2721;DHT22;1368;49.484;11.112;2023-05-07T14:36:37;23.90;93.30
2721;DHT22;1368;49.484;11.112;2023-05-07T14:39:03;23.40;93.10
2721;DHT22;1368;49.484;11.112;2023-05-07T14:41:29;23.00;93.80
2721;DHT22;1368;49.484;11.112;2023-05-07T14:43:54;23.00;93.70
2721;DHT22;1368;49.484;11.112;2023-05-07T14:46:20;23.10;94.00
2721;DHT22;1368;49.484;11.112;2023-05-07T14:48:46;23.10;93.30
2721;DHT22;1368;49.484;11.112;2023-05-07T14:51:12;23.00;93.60
2721;DHT22;1368;49.484;11.112;2023-05-07T14:53:38;23.50;93.60
2721;DHT22;1368;49.484;11.112;2023-05-07T14:56:04;22.90;93.40
2721;DHT22;1368;49.484;11.112;2023-05-07T14:58:31;23.10;93.20
2721;DHT22;1368;49.484;11.112;2023-05-07T15:00:56;23.90;93.30
2721;DHT22;1368;49.484;11.112;2023-05-07T15:03:22;23.20;93.20
2721;DHT22;1368;49.484;11.112;2023-05-07T15:05:48;23.10;93.50
2721;DHT22;1368;49.484;11.112;2023-05-07T15:08:17;23.30;93.40
2721;DHT22;1368;49.484;11.112;2023-05-07T15:10:42;23.50;92.80
2721;DHT22;1368;49.484;11.112;2023-05-07T15:13:09;23.70;92.90
2721;DHT22;1368;49.484;11.112;2023-05-07T15:15:35;23.60;92.80
2721;DHT22;1368;49.484;11.112;2023-05-07T15:18:01;23.60;92.70
2721;DHT22;1368;49.484;11.112;2023-05-07T15:20:26;23.30;92.40
2721;DHT22;1368;49.484;11.112;2023-05-07T15:22:52;23.20;92.60
2721;DHT22;1368;49.484;11.112;2023-05-07T15:25:17;23.40;92.70
2721;DHT22;1368;49.484;11.112;2023-05-07T15:27:43;23.60;92.30
2721;DHT22;1368;49.484;11.112;2023-05-07T15:30:09;23.70;92.20
2721;DHT22;1368;49.484;11.112;2023-05-07T15:32:37;23.70;92.00
2721;DHT22;1368;49.484;11.112;2023-05-07T15:35:04;24.40;92.20
2721;DHT22;1368;49.484;11.112;2023-05-07T15:37:33;24.20;91.90
2721;DHT22;1368;49.484;11.112;2023-05-07T15:39:58;24.30;91.30
2721;DHT22;1368;49.484;11.112;2023-05-07T15:42:24;24.00;91.40
2721;DHT22;1368;49.484;11.112;2023-05-07T15:44:50;23.30;91.20
2721;DHT22;1368;49.484;11.112;2023-05-07T15:47:15;23.20;91.90
2721;DHT22;1368;49.484;11.112;2023-05-07T15:49:41;23.10;91.90
2721;DHT22;1368;49.484;11.112;2023-05-07T15:52:07;23.60;91.70
2721;DHT22;1368;49.484;11.112;2023-05-07T15:54:35;23.00;91.80
2721;DHT22;1368;49.484;11.112;2023-05-07T15:57:03;23.10;91.80
2721;DHT22;1368;49.484;11.112;2023-05-07T15:59:28;23.50;91.70
2721;DHT22;1368;49.484;11.112;2023-05-07T16:01:54;23.10;90.90